Time;durP1;ratioP1;P1;durP2;ratioP2;P2;SDS_P1;SDS_P2;PMS_P1;PMS_P2;Temp;Humidity;BMP_temperature;BMP_pressure;BME280_temperature;BME280_humidity;BME280_pressure;Samples;Min_cycle;Max_cycle;Signal;HPM_P1;HPM_P2
2023/05/29 00:01:08;;;;;;;17.57;10.27;;;14.60;98.10;;;;;;5093786;28;20192;-72
2023/05/29 00:03:35;;;;;;;16.93;9.10;;;14.50;98.50;;;;;;5093931;28;20206;-71
2023/05/29 00:06:05;;;;;;;11.80;8.80;;;14.60;99.80;;;;;;5092695;28;20167;-72
2023/05/29 00:08:31;;;;;;;15.80;9.17;;;14.60;99.50;;;;;;5093775;28;20175;-71
2023/05/29 00:10:58;;;;;;;15.70;9.67;;;14.60;99.20;;;;;;5093500;28;20225;-71
2023/05/29 00:13:23;;;;;;;21.43;9.67;;;14.60;99.40;;;;;;5093680;28;20172;-70
2023/05/29 00:15:49;;;;;;;15.00;8.93;;;14.50;99.90;;;;;;5093585;28;20175;-71
2023/05/29 00:18:15;;;;;;;15.37;9.33;;;14.40;99.90;;;;;;5093494;28;20650;-73
2023/05/29 00:20:40;;;;;;;13.83;9.57;;;14.40;99.90;;;;;;5093849;28;20171;-72
2023/05/29 00:23:07;;;;;;;16.30;9.73;;;14.30;99.90;;;;;;5093472;28;20632;-69
2023/05/29 00:25:33;;;;;;;17.40;10.17;;;14.20;99.90;;;;;;5092037;28;20627;-69
2023/05/29 00:27:59;;;;;;;15.00;9.50;;;14.20;99.90;;;;;;5093573;28;20175;-71
2023/05/29 00:30:24;;;;;;;13.27;9.77;;;14.20;99.90;;;;;;5093533;28;20172;-70
2023/05/29 00:32:51;;;;;;;12.27;9.67;;;14.20;99.90;;;;;;5093371;28;20239;-70
2023/05/29 00:35:17;;;;;;;15.73;9.60;;;14.10;99.90;;;;;;5093549;28;20207;-70
2023/05/29 00:37:43;;;;;;;14.97;9.50;;;14.10;99.90;;;;;;5093290;28;20199;-71
2023/05/29 00:40:11;;;;;;;18.13;10.30;;;14.00;99.90;;;;;;5092011;28;20171;-72
2023/05/29 00:42:37;;;;;;;15.73;9.90;;;14.00;99.90;;;;;;5092704;28;20206;-69
2023/05/29 00:45:03;;;;;;;15.63;9.47;;;13.90;99.90;;;;;;5093254;28;20172;-69
2023/05/29 00:47:29;;;;;;;15.97;9.73;;;13.90;99.90;;;;;;5093198;28;20172;-71
2023/05/29 00:49:57;;;;;;;14.63;10.13;;;13.90;99.90;;;;;;5093205;28;20168;-69
2023/05/29 00:52:25;;;;;;;14.13;9.60;;;13.90;99.90;;;;;;5093317;28;20176;-70
2023/05/29 00:54:51;;;;;;;18.13;9.57;;;13.80;99.90;;;;;;5091722;28;20168;-70
2023/05/29 00:57:17;;;;;;;16.40;10.17;;;13.70;99.90;;;;;;5093151;28;20172;-70
2023/05/29 00:59:45;;;;;;;15.67;9.87;;;13.60;99.90;;;;;;5093126;28;20164;-70
2023/05/29 01:02:11;;;;;;;19.27;10.23;;;13.50;99.90;;;;;;5092845;28;20336;-70
2023/05/29 01:04:37;;;;;;;17.40;10.07;;;13.40;99.90;;;;;;5093092;28;20218;-70
2023/05/29 01:07:03;;;;;;;19.63;10.73;;;13.50;99.90;;;;;;5092960;28;20259;-68
2023/05/29 01:09:30;;;;;;;15.47;9.33;;;13.40;99.90;;;;;;5092701;28;20261;-69
2023/05/29 01:12:08;;;;;;;17.93;10.00;;;13.40;99.90;;;;;;5092945;28;20176;-70
2023/05/29 01:14:52;;;;;;;16.53;9.60;;;13.30;99.90;;;;;;5093041;28;20645;-70
2023/05/29 01:17:34;;;;;;;16.60;9.70;;;13.30;99.90;;;;;;5092939;28;20233;-70
2023/05/29 01:20:30;;;;;;;16.77;9.87;;;13.30;99.90;;;;;;5093001;28;20190;-72
2023/05/29 01:23:33;;;;;;;17.17;9.93;;;13.30;99.90;;;;;;5092842;28;20344;-70
2023/05/29 01:26:11;;;;;;;13.53;9.40;;;13.20;99.90;;;;;;5092985;28;20252;-69
2023/05/29 01:29:04;;;;;;;16.57;10.27;;;13.20;99.90;;;;;;5092975;28;20190;-68
2023/05/29 01:31:31;;;;;;;18.37;9.57;;;13.20;99.90;;;;;;5089644;28;20187;-70
2023/05/29 01:33:58;;;;;;;14.43;8.97;;;13.10;99.90;;;;;;5092513;28;20219;-70
2023/05/29 01:36:24;;;;;;;15.07;9.73;;;13.20;99.90;;;;;;5092758;28;20184;-70
2023/05/29 01:38:52;;;;;;;16.37;9.60;;;13.10;99.90;;;;;;5092412;28;20635;-70
2023/05/29 01:41:19;;;;;;;13.30;9.33;;;13.10;99.90;;;;;;5092943;28;20251;-70
2023/05/29 01:43:46;;;;;;;15.23;9.40;;;13.10;99.90;;;;;;5092789;28;20294;-70
2023/05/29 01:46:13;;;;;;;17.03;10.17;;;13.10;99.90;;;;;;5092743;28;20164;-70
2023/05/29 01:48:44;;;;;;;15.30;9.43;;;13.20;99.90;;;;;;5092718;28;20206;-69
2023/05/29 01:51:11;;;;;;;20.70;10.00;;;13.10;99.90;;;;;;5092883;28;20229;-70
2023/05/29 01:53:37;;;;;;;14.97;9.87;;;13.10;99.90;;;;;;5092556;28;20243;-69
2023/05/29 01:56:05;;;;;;;21.43;10.13;;;13.10;99.90;;;;;;5096246;28;20172;-70
2023/05/29 01:58:32;;;;;;;16.30;9.77;;;13.10;99.90;;;;;;5096181;28;20180;-69
2023/05/29 02:00:58;;;;;;;14.67;9.93;;;13.10;99.90;;;;;;5096138;28;20646;-69
2023/05/29 02:03:24;;;;;;;16.40;10.60;;;13.00;99.90;;;;;;5096102;28;20229;-69
2023/05/29 02:05:50;;;;;;;14.13;9.20;;;13.00;99.90;;;;;;5095922;28;20698;-70
2023/05/29 02:08:15;;;;;;;19.77;10.23;;;12.90;99.90;;;;;;5095589;28;20183;-68
2023/05/29 02:10:41;;;;;;;20.67;10.50;;;12.90;99.90;;;;;;5096011;28;20172;-68
2023/05/29 02:13:07;;;;;;;16.40;9.20;;;12.80;99.90;;;;;;5095933;28;20176;-69
2023/05/29 02:15:32;;;;;;;15.07;10.30;;;12.80;99.90;;;;;;5095853;28;20172;-69
2023/05/29 02:18:00;;;;;;;17.73;10.27;;;12.90;99.90;;;;;;5095963;28;20233;-69
2023/05/29 02:20:27;;;;;;;16.43;9.70;;;12.80;99.90;;;;;;5095720;28;20167;-69
2023/05/29 02:22:52;;;;;;;18.20;9.47;;;12.70;99.90;;;;;;5095385;28;20246;-70
2023/05/29 02:25:18;;;;;;;14.63;9.10;;;12.60;99.90;;;;;;5095602;28;20171;-69
2023/05/29 02:27:44;;;;;;;14.10;7.87;;;12.70;99.90;;;;;;5094630;28;20180;-70
2023/05/29 02:30:10;;;;;;;13.30;7.87;;;12.60;99.90;;;;;;5095662;28;20168;-70
2023/05/29 02:32:36;;;;;;;15.57;7.93;;;12.60;99.90;;;;;;5095480;28;20227;-69
2023/05/29 02:35:02;;;;;;;15.43;7.37;;;12.50;99.90;;;;;;5095224;28;20171;-69
2023/05/29 02:37:29;;;;;;;15.70;7.20;;;12.50;99.90;;;;;;5094881;28;20618;-69
2023/05/29 02:39:54;;;;;;;12.97;6.40;;;12.50;99.90;;;;;;5095436;28;20172;-70
2023/05/29 02:42:20;;;;;;;15.60;6.63;;;12.50;99.90;;;;;;5095539;28;20207;-70
2023/05/29 02:44:46;;;;;;;14.77;6.27;;;12.40;99.90;;;;;;5095391;28;20660;-69
2023/05/29 02:47:11;;;;;;;11.53;5.27;;;12.40;99.90;;;;;;5095320;28;20159;-69
2023/05/29 02:49:37;;;;;;;16.67;6.37;;;12.30;99.90;;;;;;5095138;28;20164;-70
2023/05/29 02:52:03;;;;;;;13.20;6.10;;;12.20;99.90;;;;;;5094823;28;20229;-69
2023/05/29 02:54:28;;;;;;;15.57;6.17;;;12.10;99.90;;;;;;5095202;28;20634;-69
2023/05/29 02:56:54;;;;;;;13.77;5.20;;;12.10;99.90;;;;;;5095271;28;20191;-69
2023/05/29 02:59:19;;;;;;;11.47;5.40;;;12.00;99.90;;;;;;5095193;28;20673;-69
2023/05/29 03:01:47;;;;;;;11.00;5.83;;;11.90;99.90;;;;;;5094936;28;20187;-69
2023/05/29 03:04:13;;;;;;;14.20;5.90;;;11.90;99.90;;;;;;5094634;28;20643;-69
2023/05/29 03:06:38;;;;;;;14.30;5.60;;;11.90;99.90;;;;;;5094148;28;20167;-69
2023/05/29 03:09:06;;;;;;;17.20;6.13;;;11.80;99.90;;;;;;5094974;28;20180;-69
2023/05/29 03:11:33;;;;;;;13.97;5.60;;;11.80;99.90;;;;;;5094883;28;20202;-69
2023/05/29 03:13:58;;;;;;;15.53;5.47;;;11.80;99.90;;;;;;5094606;28;20615;-69
2023/05/29 03:16:25;;;;;;;12.73;5.80;;;11.70;99.90;;;;;;5094825;28;20302;-70
2023/05/29 03:18:50;;;;;;;16.17;5.53;;;11.70;99.90;;;;;;5094448;28;20180;-70
2023/05/29 03:21:16;;;;;;;12.80;5.00;;;11.70;99.90;;;;;;5094012;28;20305;-70
2023/05/29 03:23:42;;;;;;;13.70;5.30;;;11.60;99.90;;;;;;5094672;28;20203;-70
2023/05/29 03:26:08;;;;;;;11.23;3.97;;;11.60;99.90;;;;;;5094424;28;20156;-69
2023/05/29 03:28:34;;;;;;;13.53;5.13;;;11.50;99.90;;;;;;5094523;28;20206;-70
2023/05/29 03:30:59;;;;;;;13.77;4.70;;;11.60;99.90;;;;;;5093218;28;20168;-70
2023/05/29 03:33:25;;;;;;;14.00;4.40;;;11.60;99.90;;;;;;5093834;28;20224;-69
2023/05/29 03:35:51;;;;;;;14.23;4.93;;;11.60;99.90;;;;;;5093775;28;20263;-69
2023/05/29 03:38:17;;;;;;;13.60;4.60;;;11.50;99.90;;;;;;5094228;28;20160;-70
2023/05/29 03:40:42;;;;;;;13.73;4.80;;;11.50;99.90;;;;;;5094148;28;20164;-70
2023/05/29 03:43:08;;;;;;;15.63;4.60;;;11.50;99.90;;;;;;5093857;28;20249;-70
2023/05/29 03:45:34;;;;;;;18.27;5.00;;;11.50;99.90;;;;;;5094119;28;20240;-69
2023/05/29 03:47:59;;;;;;;16.53;5.33;;;11.50;99.90;;;;;;5093780;28;20171;-70
2023/05/29 03:50:25;;;;;;;12.57;4.73;;;11.40;99.90;;;;;;5093579;28;20212;-69
2023/05/29 03:52:51;;;;;;;9.83;4.10;;;11.50;99.90;;;;;;5092544;28;20623;-69
2023/05/29 03:55:16;;;;;;;11.20;4.40;;;11.50;99.90;;;;;;5093603;28;20183;-69
2023/05/29 03:57:42;;;;;;;11.90;3.93;;;11.50;97.10;;;;;;5093757;28;20198;-69
2023/05/29 04:00:10;;;;;;;10.23;3.60;;;11.50;91.50;;;;;;5093989;28;20168;-69
2023/05/29 04:02:40;;;;;;;12.10;3.97;;;11.60;84.60;;;;;;5093657;28;20247;-68
2023/05/29 04:05:07;;;;;;;19.33;4.80;;;11.70;74.90;;;;;;5093411;28;20175;-70
2023/05/29 04:07:33;;;;;;;11.03;3.90;;;11.80;72.70;;;;;;5093763;28;20186;-70
2023/05/29 04:09:59;;;;;;;10.30;4.37;;;12.00;60.30;;;;;;5093687;28;20213;-71
2023/05/29 04:12:24;;;;;;;16.17;4.27;;;12.10;56.00;;;;;;5093733;28;20561;-70
2023/05/29 04:14:50;;;;;;;11.43;4.13;;;12.20;42.00;;;;;;5093504;28;20534;-70
2023/05/29 04:17:16;;;;;;;10.43;4.13;;;12.20;44.60;;;;;;5092953;28;20164;-70
2023/05/29 04:19:41;;;;;;;11.43;3.73;;;12.30;38.40;;;;;;5093347;28;20172;-70
2023/05/29 04:22:07;;;;;;;8.47;3.60;;;12.40;22.30;;;;;;5092945;28;20212;-70
2023/05/29 04:24:33;;;;;;;11.03;4.20;;;12.50;21.80;;;;;;5092996;28;20185;-70
2023/05/29 04:27:01;;;;;;;15.30;3.77;;;12.60;17.00;;;;;;5093227;28;20183;-69
2023/05/29 04:29:28;;;;;;;8.27;3.60;;;12.70;11.90;;;;;;5093524;28;20164;-69
2023/05/29 04:31:55;;;;;;;8.50;3.13;;;12.70;10.80;;;;;;5092715;28;20734;-70
2023/05/29 04:34:21;;;;;;;11.00;3.50;;;12.80;1.00;;;;;;5093259;28;20194;-71
2023/05/29 04:36:47;;;;;;;12.67;3.87;;;13.00;1.00;;;;;;5093189;28;20176;-68
2023/05/29 04:39:13;;;;;;;10.43;3.57;;;13.20;1.00;;;;;;5092971;28;20248;-69
2023/05/29 04:41:43;;;;;;;10.73;3.60;;;13.30;1.00;;;;;;5093328;28;20194;-69
2023/05/29 04:44:11;;;;;;;12.80;3.40;;;13.50;1.00;;;;;;5093012;28;20290;-70
2023/05/29 04:46:38;;;;;;;11.37;3.87;;;13.60;1.00;;;;;;5092662;28;20205;-69
2023/05/29 04:49:04;;;;;;;12.50;3.40;;;13.60;1.00;;;;;;5092880;28;20168;-69
2023/05/29 04:51:31;;;;;;;9.33;3.47;;;13.70;1.00;;;;;;5092905;28;20187;-70
2023/05/29 04:53:56;;;;;;;10.60;2.83;;;13.90;1.00;;;;;;5093097;28;20245;-68
2023/05/29 04:56:22;;;;;;;8.63;3.43;;;13.90;1.00;;;;;;5093079;28;20626;-69
2023/05/29 04:58:48;;;;;;;12.07;4.10;;;14.20;1.00;;;;;;5092557;28;20168;-69
2023/05/29 05:01:14;;;;;;;8.90;3.30;;;14.10;1.00;;;;;;5092562;28;20666;-68
2023/05/29 05:03:43;;;;;;;12.40;3.80;;;14.00;1.00;;;;;;5093083;28;20208;-69
2023/05/29 05:06:09;;;;;;;10.67;3.60;;;14.40;1.00;;;;;;5091423;28;20532;-69
2023/05/29 05:08:35;;;;;;;6.53;3.23;;;14.80;1.00;;;;;;5092541;28;20160;-69
2023/05/29 05:11:01;;;;;;;12.27;3.53;;;15.30;1.00;;;;;;5092546;28;20168;-68
2023/05/29 05:13:27;;;;;;;12.63;3.80;;;15.50;1.00;;;;;;5092440;28;20172;-70
2023/05/29 05:15:53;;;;;;;10.13;3.73;;;15.90;1.00;;;;;;5092550;28;20163;-69
2023/05/29 05:18:19;;;;;;;11.93;5.30;;;15.30;1.00;;;;;;5092916;28;20172;-70
2023/05/29 05:20:46;;;;;;;9.67;3.70;;;15.30;1.00;;;;;;5092624;28;20168;-70
2023/05/29 05:23:11;;;;;;;15.23;5.37;;;15.00;1.00;;;;;;5092600;28;20235;-70
2023/05/29 05:25:38;;;;;;;12.60;4.40;;;15.10;1.00;;;;;;5092688;28;20199;-70
2023/05/29 05:28:04;;;;;;;11.10;4.90;;;15.50;1.00;;;;;;5093695;28;20163;-69
2023/05/29 05:30:30;;;;;;;12.57;4.00;;;15.70;1.00;;;;;;5096411;28;20172;-70
2023/05/29 05:32:56;;;;;;;10.00;3.50;;;16.10;99.90;;;;;;5096286;28;20694;-70
2023/05/29 05:35:22;;;;;;;8.70;3.17;;;16.60;1.00;;;;;;5096357;28;20643;-70
2023/05/29 05:37:48;;;;;;;7.87;3.03;;;15.90;99.90;;;;;;5096424;28;20199;-68
2023/05/29 05:40:14;;;;;;;9.67;3.20;;;15.70;99.90;;;;;;5096195;28;20244;-69
2023/05/29 05:42:39;;;;;;;14.57;4.40;;;15.40;1.00;;;;;;5096302;28;20256;-69
2023/05/29 05:45:06;;;;;;;10.93;4.17;;;15.70;1.00;;;;;;5095917;28;20178;-69
2023/05/29 05:47:32;;;;;;;11.63;4.07;;;16.60;1.00;;;;;;5096482;28;20183;-70
2023/05/29 05:49:58;;;;;;;11.50;3.23;;;16.90;99.90;;;;;;5094842;28;20611;-70
2023/05/29 05:52:24;;;;;;;7.73;3.50;;;17.40;99.90;;;;;;5096303;28;20179;-69
2023/05/29 05:54:50;;;;;;;8.93;3.23;;;17.10;99.90;;;;;;5096060;28;20260;-71
2023/05/29 05:57:16;;;;;;;9.13;3.40;;;16.80;1.00;;;;;;5095675;28;20198;-71
2023/05/29 05:59:41;;;;;;;10.80;3.33;;;17.00;1.00;;;;;;5095863;28;20221;-71
2023/05/29 06:02:07;;;;;;;11.47;3.87;;;16.90;99.90;;;;;;5095757;28;20579;-71
2023/05/29 06:04:32;;;;;;;10.63;3.20;;;17.00;1.00;;;;;;5096035;28;20237;-71
2023/05/29 06:06:58;;;;;;;11.67;3.03;;;17.10;1.00;;;;;;5095807;28;20167;-71
2023/05/29 06:09:24;;;;;;;8.57;3.17;;;17.60;1.00;;;;;;5095911;28;20172;-71
2023/05/29 06:11:50;;;;;;;8.02;3.42;;;18.40;1.00;;;;;;5095891;28;20172;-71
2023/05/29 06:14:16;;;;;;;5.57;3.22;;;18.10;99.90;;;;;;5095466;28;20180;-70
2023/05/29 06:16:42;;;;;;;10.00;3.63;;;17.90;28.50;;;;;;5095627;28;20160;-70
2023/05/29 06:19:08;;;;;;;7.82;3.50;;;18.30;1.00;;;;;;5095415;28;20627;-70
2023/05/29 06:21:35;;;;;;;8.60;3.05;;;18.40;1.00;;;;;;5095594;28;20184;-72
2023/05/29 06:24:01;;;;;;;8.82;2.92;;;18.60;99.90;;;;;;5095422;28;20238;-71
2023/05/29 06:26:26;;;;;;;12.82;3.53;;;17.50;99.90;;;;;;5095262;28;20634;-72
2023/05/29 06:28:52;;;;;;;7.18;3.00;;;17.90;99.90;;;;;;5094227;28;20202;-72
2023/05/29 06:31:18;;;;;;;9.02;3.80;;;18.50;99.90;;;;;;5095602;28;20182;-71
2023/05/29 06:33:44;;;;;;;11.13;3.90;;;18.70;1.00;;;;;;5094982;28;20540;-71
2023/05/29 06:36:10;;;;;;;10.05;3.47;;;18.80;99.90;;;;;;5095162;28;20164;-72
2023/05/29 06:38:36;;;;;;;8.88;3.58;;;18.40;1.00;;;;;;5095353;28;20645;-70
2023/05/29 06:41:02;;;;;;;10.27;3.20;;;18.80;1.00;;;;;;5094577;28;20168;-71
2023/05/29 06:43:28;;;;;;;11.52;3.72;;;19.10;99.90;;;;;;5094822;28;20689;-73
2023/05/29 06:45:54;;;;;;;10.35;2.83;;;20.00;99.90;;;;;;5095158;28;20171;-72
2023/05/29 06:48:20;;;;;;;13.85;3.50;;;19.60;1.00;;;;;;5095211;28;20179;-71
2023/05/29 06:50:47;;;;;;;7.53;3.30;;;19.10;1.00;;;;;;5094650;28;20179;-72
2023/05/29 06:53:13;;;;;;;10.30;3.35;;;18.80;1.00;;;;;;5094788;28;20199;-73
2023/05/29 06:55:40;;;;;;;8.85;3.72;;;19.90;99.90;;;;;;5093815;28;20203;-72
2023/05/29 06:58:06;;;;;;;10.00;3.80;;;19.90;1.00;;;;;;5094334;28;20267;-73
2023/05/29 07:00:32;;;;;;;9.93;3.40;;;20.30;1.00;;;;;;5094746;28;20247;-72
2023/05/29 07:02:58;;;;;;;12.75;3.85;;;19.60;1.00;;;;;;5094606;28;20651;-73
2023/05/29 07:05:23;;;;;;;6.38;3.45;;;19.40;71.60;;;;;;5094476;28;20673;-73
2023/05/29 07:07:49;;;;;;;10.05;3.28;;;19.60;35.90;;;;;;5094768;28;20630;-73
2023/05/29 07:10:15;;;;;;;11.00;3.90;;;20.10;1.00;;;;;;5094400;28;20247;-73
2023/05/29 07:12:41;;;;;;;9.27;3.40;;;20.10;99.90;;;;;;5094202;28;20179;-74
2023/05/29 07:15:07;;;;;;;9.30;3.35;;;20.70;99.90;;;;;;5094444;28;20164;-73
2023/05/29 07:17:32;;;;;;;10.65;3.70;;;20.60;99.90;;;;;;5094566;28;20172;-72
2023/05/29 07:19:58;;;;;;;10.50;3.20;;;20.10;1.00;;;;;;5094424;28;20200;-72
2023/05/29 07:22:24;;;;;;;8.43;3.50;;;20.10;99.90;;;;;;5094238;28;20270;-73
2023/05/29 07:24:50;;;;;;;8.68;3.50;;;20.00;99.90;;;;;;5093913;28;20573;-73
2023/05/29 07:27:15;;;;;;;9.70;3.20;;;20.60;99.90;;;;;;5093747;28;20164;-73
2023/05/29 07:29:41;;;;;;;7.57;3.35;;;21.30;1.00;;;;;;5094394;28;20172;-73
2023/05/29 07:32:06;;;;;;;8.13;3.42;;;21.30;1.00;;;;;;5092924;28;20553;-73
2023/05/29 07:34:32;;;;;;;7.97;3.30;;;20.80;1.00;;;;;;5093986;28;20175;-73
2023/05/29 07:37:03;;;;;;;9.57;3.30;;;20.70;1.00;;;;;;5094345;28;20179;-73
2023/05/29 07:39:33;;;;;;;9.25;3.15;;;20.30;82.80;;;;;;5093869;28;20293;-74
2023/05/29 07:42:01;;;;;;;7.85;3.47;;;20.80;1.00;;;;;;5093687;28;20164;-73
2023/05/29 07:44:26;;;;;;;11.50;3.30;;;21.00;1.00;;;;;;5093995;28;20229;-73
2023/05/29 07:46:52;;;;;;;8.50;3.53;;;20.80;1.00;;;;;;5093901;28;20618;-73
2023/05/29 07:49:17;;;;;;;7.53;3.20;;;19.90;99.90;;;;;;5093500;28;20182;-73
2023/05/29 07:51:43;;;;;;;12.82;3.17;;;19.90;99.90;;;;;;5092627;28;20164;-74
2023/05/29 07:54:09;;;;;;;7.40;2.83;;;20.00;99.90;;;;;;5093991;28;20526;-72
2023/05/29 07:56:35;;;;;;;8.00;3.20;;;20.30;94.80;;;;;;5093185;28;20171;-74
2023/05/29 07:59:00;;;;;;;8.68;3.33;;;20.50;53.70;;;;;;5093375;28;20609;-74
2023/05/29 08:01:27;;;;;;;9.70;3.63;;;20.70;1.00;;;;;;5093677;28;20227;-74
2023/05/29 08:03:52;;;;;;;7.95;3.17;;;20.70;25.70;;;;;;5093242;28;20727;-74
2023/05/29 08:06:18;;;;;;;11.82;3.53;;;20.60;15.80;;;;;;5093205;28;20175;-73
2023/05/29 08:08:44;;;;;;;9.52;3.60;;;20.90;1.00;;;;;;5093140;28;20289;-74
2023/05/29 08:11:10;;;;;;;11.02;3.55;;;21.50;1.00;;;;;;5093204;28;20171;-73
2023/05/29 08:13:36;;;;;;;7.88;3.20;;;22.50;1.00;;;;;;5093453;28;20171;-73
2023/05/29 08:16:02;;;;;;;10.00;3.55;;;22.40;1.00;;;;;;5093180;28;20183;-73
2023/05/29 08:18:30;;;;;;;6.97;3.17;;;21.50;1.00;;;;;;5093244;28;20165;-74
2023/05/29 08:20:56;;;;;;;8.70;3.25;;;20.70;1.00;;;;;;5092858;28;20168;-73
2023/05/29 08:23:22;;;;;;;8.05;3.38;;;21.00;1.00;;;;;;5093155;28;20218;-74
2023/05/29 08:25:48;;;;;;;8.57;3.47;;;21.70;1.00;;;;;;5092594;28;20164;-72
2023/05/29 08:28:14;;;;;;;9.05;3.22;;;22.50;1.00;;;;;;5092959;28;20224;-73
2023/05/29 08:30:40;;;;;;;10.55;3.30;;;21.60;1.00;;;;;;5092929;28;20168;-73
2023/05/29 08:33:06;;;;;;;8.77;2.80;;;22.10;1.00;;;;;;5092767;28;20226;-73
2023/05/29 08:35:32;;;;;;;10.07;3.40;;;22.00;1.00;;;;;;5092574;28;20163;-74
2023/05/29 08:37:58;;;;;;;6.03;3.30;;;21.90;1.00;;;;;;5092878;28;20630;-74
2023/05/29 08:40:24;;;;;;;8.40;3.63;;;22.60;1.00;;;;;;5092526;28;20176;-74
2023/05/29 08:43:02;;;;;;;10.38;3.88;;;23.50;99.90;;;;;;5092796;28;20222;-73
2023/05/29 08:45:31;;;;;;;8.93;3.15;;;24.30;99.90;;;;;;5092707;28;20183;-72
2023/05/29 08:48:00;;;;;;;8.68;3.67;;;23.10;99.90;;;;;;5092661;28;20168;-73
2023/05/29 08:50:26;;;;;;;6.18;3.10;;;22.80;99.90;;;;;;5092433;28;20172;-73
2023/05/29 08:52:52;;;;;;;6.90;3.40;;;22.50;99.90;;;;;;5092174;28;20188;-73
2023/05/29 08:55:18;;;;;;;9.85;3.70;;;21.70;1.00;;;;;;5092849;28;20182;-73
2023/05/29 08:57:44;;;;;;;8.88;3.20;;;21.60;1.00;;;;;;5092467;28;20639;-74
2023/05/29 09:00:13;;;;;;;7.88;3.67;;;21.90;1.00;;;;;;5092312;28;20184;-74
2023/05/29 09:02:39;;;;;;;5.93;2.97;;;21.70;1.00;;;;;;5092786;28;20271;-73
2023/05/29 09:05:06;;;;;;;7.82;3.17;;;21.50;1.00;;;;;;5096886;28;20535;-73
2023/05/29 09:07:32;;;;;;;7.07;3.33;;;21.10;1.00;;;;;;5096534;28;20220;-73
2023/05/29 09:10:00;;;;;;;8.05;3.30;;;20.70;1.00;;;;;;5095537;28;20175;-74
2023/05/29 09:12:26;;;;;;;9.27;3.55;;;21.20;1.00;;;;;;5097012;28;20175;-72
2023/05/29 09:14:51;;;;;;;8.23;2.97;;;21.20;1.00;;;;;;5096322;28;20618;-73
2023/05/29 09:17:17;;;;;;;9.25;3.60;;;20.80;1.00;;;;;;5096427;28;20630;-74
2023/05/29 09:19:44;;;;;;;9.35;3.60;;;20.80;1.00;;;;;;5096501;28;20164;-74
2023/05/29 09:22:15;;;;;;;8.75;3.22;;;20.90;1.00;;;;;;5096101;28;20282;-75
2023/05/29 09:24:48;;;;;;;12.68;4.18;;;21.80;1.00;;;;;;5096824;28;20662;-73
2023/05/29 09:27:14;;;;;;;11.05;3.70;;;22.00;1.00;;;;;;5096159;28;20172;-72
2023/05/29 09:29:41;;;;;;;10.15;3.15;;;21.80;1.00;;;;;;5096326;28;20168;-72
2023/05/29 09:32:20;;;;;;;7.90;3.35;;;21.50;1.00;;;;;;5096521;28;20171;-74
2023/05/29 09:34:46;;;;;;;8.77;3.35;;;21.70;1.00;;;;;;5096329;28;20164;-74
2023/05/29 09:37:12;;;;;;;8.07;3.40;;;22.50;1.00;;;;;;5095917;28;20517;-73
2023/05/29 09:39:51;;;;;;;10.88;3.67;;;22.70;1.00;;;;;;5096390;28;20180;-74
2023/05/29 09:42:17;;;;;;;10.90;3.53;;;22.00;1.00;;;;;;5096081;28;20297;-73
2023/05/29 09:44:46;;;;;;;7.88;3.40;;;22.30;1.00;;;;;;5096299;28;20171;-74
2023/05/29 09:47:18;;;;;;;13.43;3.67;;;21.70;1.00;;;;;;5095961;28;20638;-73
2023/05/29 09:49:46;;;;;;;7.20;3.38;;;22.30;1.00;;;;;;5096141;28;20182;-74
2023/05/29 09:52:15;;;;;;;8.32;3.33;;;22.10;1.00;;;;;;5095759;28;20643;-73
2023/05/29 09:54:45;;;;;;;9.73;3.55;;;21.50;1.00;;;;;;5095791;28;20193;-73
2023/05/29 09:57:13;;;;;;;9.32;3.65;;;21.10;1.00;;;;;;5095649;28;20289;-73
2023/05/29 09:59:40;;;;;;;11.65;3.65;;;20.90;1.00;;;;;;5095750;28;20195;-73
2023/05/29 10:02:11;;;;;;;10.88;3.88;;;20.90;1.00;;;;;;5095811;28;20184;-74
2023/05/29 10:04:37;;;;;;;7.93;3.35;;;21.10;1.00;;;;;;5095746;28;20584;-74
2023/05/29 10:07:10;;;;;;;11.18;3.85;;;21.50;1.00;;;;;;5095228;28;20187;-74
2023/05/29 10:09:41;;;;;;;9.30;3.30;;;22.40;1.00;;;;;;5095166;28;20233;-74
2023/05/29 10:12:08;;;;;;;9.02;3.58;;;23.20;99.90;;;;;;5095828;28;20168;-74
2023/05/29 10:14:35;;;;;;;10.48;3.85;;;23.00;99.90;;;;;;5094548;28;20172;-74
2023/05/29 10:17:05;;;;;;;9.02;3.72;;;22.70;99.90;;;;;;5095973;28;20168;-74
2023/05/29 10:19:32;;;;;;;7.68;3.05;;;22.40;1.00;;;;;;5095619;28;20213;-73
2023/05/29 10:22:01;;;;;;;12.70;3.75;;;22.30;99.90;;;;;;5095197;28;20168;-73
2023/05/29 10:24:28;;;;;;;9.77;3.78;;;22.90;99.90;;;;;;5095532;28;20230;-73
2023/05/29 10:26:56;;;;;;;9.75;3.80;;;23.10;99.90;;;;;;5095326;28;20167;-74
2023/05/29 10:29:35;;;;;;;8.82;3.50;;;21.90;99.90;;;;;;5095843;28;20204;-75
2023/05/29 10:32:07;;;;;;;6.43;3.67;;;20.90;1.00;;;;;;5095291;28;20693;-74
2023/05/29 10:34:56;;;;;;;11.60;3.53;;;21.20;1.00;;;;;;5095097;28;20183;-75
2023/05/29 10:37:46;;;;;;;6.65;3.38;;;22.00;1.00;;;;;;5095234;28;20160;-75
2023/05/29 10:40:12;;;;;;;9.00;3.42;;;23.10;99.90;;;;;;5094966;28;20176;-74
2023/05/29 10:42:42;;;;;;;9.02;3.40;;;22.30;1.00;;;;;;5095016;28;20211;-73
2023/05/29 10:45:09;;;;;;;5.32;3.05;;;22.20;1.00;;;;;;5095084;28;20626;-74
2023/05/29 10:47:35;;;;;;;11.25;3.88;;;22.60;99.90;;;;;;5094520;28;20187;-73
2023/05/29 10:50:01;;;;;;;11.00;3.53;;;22.20;1.00;;;;;;5094388;28;20167;-73
2023/05/29 10:52:31;;;;;;;9.98;3.50;;;22.70;99.90;;;;;;5094896;28;20615;-74
2023/05/29 10:54:57;;;;;;;6.80;3.20;;;22.30;99.90;;;;;;5094877;28;20172;-74
2023/05/29 10:57:24;;;;;;;7.47;2.88;;;22.20;1.00;;;;;;5094697;28;20528;-74
2023/05/29 11:00:11;;;;;;;10.07;3.53;;;21.50;1.00;;;;;;5093875;28;20164;-74
2023/05/29 11:02:38;;;;;;;10.15;3.33;;;21.80;1.00;;;;;;5093079;28;20563;-72
2023/05/29 11:05:20;;;;;;;7.88;3.25;;;21.80;1.00;;;;;;5094203;28;20168;-73
2023/05/29 11:08:00;;;;;;;8.52;3.10;;;22.00;1.00;;;;;;5093978;28;20251;-72
2023/05/29 11:10:48;;;;;;;7.22;2.85;;;21.80;1.00;;;;;;5094306;28;20733;-72
2023/05/29 11:13:35;;;;;;;6.68;2.72;;;21.40;1.00;;;;;;5094143;28;20245;-73
2023/05/29 11:16:35;;;;;;;6.18;3.45;;;21.50;1.00;;;;;;5094376;28;20697;-72
2023/05/29 11:19:05;;;;;;;12.32;3.25;;;21.20;1.00;;;;;;5094007;28;20198;-72
2023/05/29 11:21:52;;;;;;;7.85;3.47;;;21.10;1.00;;;;;;5094312;28;20190;-72
2023/05/29 11:24:25;;;;;;;10.05;3.30;;;21.50;1.00;;;;;;5093905;28;20264;-73
2023/05/29 11:26:55;;;;;;;7.68;3.03;;;21.10;1.00;;;;;;5094007;28;20195;-72
2023/05/29 11:29:26;;;;;;;7.20;2.97;;;20.90;1.00;;;;;;5094561;28;20260;-72
2023/05/29 11:32:02;;;;;;;8.65;3.67;;;21.50;1.00;;;;;;5093593;28;20282;-73
2023/05/29 11:34:29;;;;;;;6.60;3.25;;;22.40;1.00;;;;;;5094208;28;20175;-74
2023/05/29 11:36:57;;;;;;;7.90;3.03;;;22.60;1.00;;;;;;5093861;28;20266;-71
2023/05/29 11:39:23;;;;;;;5.80;3.08;;;22.10;1.00;;;;;;5093538;28;20168;-72
2023/05/29 11:41:55;;;;;;;7.07;3.40;;;21.60;1.00;;;;;;5093938;28;20233;-72
2023/05/29 11:44:24;;;;;;;7.75;3.55;;;21.70;1.00;;;;;;5093910;28;20208;-73
2023/05/29 11:47:02;;;;;;;11.70;3.78;;;21.90;1.00;;;;;;5093172;28;20518;-72
2023/05/29 11:49:37;;;;;;;8.25;3.30;;;22.30;1.00;;;;;;5093346;28;20527;-72
2023/05/29 11:52:10;;;;;;;7.25;3.15;;;21.90;1.00;;;;;;5094054;28;20264;-72
2023/05/29 11:54:36;;;;;;;12.50;3.58;;;21.10;1.00;;;;;;5093830;28;20222;-72
2023/05/29 11:57:05;;;;;;;7.60;3.00;;;20.60;1.00;;;;;;5093679;28;20614;-71
2023/05/29 11:59:31;;;;;;;12.55;3.30;;;20.80;1.00;;;;;;5093070;28;20164;-72
2023/05/29 12:01:57;;;;;;;9.13;3.33;;;20.80;1.00;;;;;;5093432;28;20202;-71
2023/05/29 12:04:22;;;;;;;7.57;2.92;;;21.00;1.00;;;;;;5093554;28;20200;-72
2023/05/29 12:06:48;;;;;;;7.03;3.10;;;20.80;1.00;;;;;;5093420;28;20209;-72
2023/05/29 12:09:29;;;;;;;7.03;2.92;;;20.90;1.00;;;;;;5093119;28;20636;-72
2023/05/29 12:12:02;;;;;;;5.60;2.53;;;20.90;1.00;;;;;;5093396;28;20211;-72
2023/05/29 12:14:27;;;;;;;8.15;3.47;;;21.00;1.00;;;;;;5093427;28;20180;-71
2023/05/29 12:16:53;;;;;;;8.60;3.50;;;20.70;1.00;;;;;;5092815;28;20507;-71
2023/05/29 12:19:19;;;;;;;6.43;3.22;;;20.30;99.10;;;;;;5093127;28;20194;-71
2023/05/29 12:21:45;;;;;;;8.25;3.72;;;20.30;31.10;;;;;;5093082;28;20195;-70
2023/05/29 12:24:10;;;;;;;14.18;3.80;;;20.50;85.40;;;;;;5093120;28;20535;-71
2023/05/29 12:26:36;;;;;;;15.05;3.90;;;20.90;1.00;;;;;;5092908;28;20256;-72
2023/05/29 12:29:05;;;;;;;6.50;3.17;;;20.90;1.00;;;;;;5092638;28;20183;-71
2023/05/29 12:31:32;;;;;;;9.05;3.22;;;20.90;1.00;;;;;;5091302;28;20196;-71
2023/05/29 12:34:12;;;;;;;8.63;3.15;;;20.60;1.00;;;;;;5092978;28;20238;-72
2023/05/29 12:36:41;;;;;;;7.95;3.13;;;21.20;1.00;;;;;;5092772;28;20168;-72
2023/05/29 12:39:10;;;;;;;6.18;2.78;;;21.70;1.00;;;;;;5091988;28;20168;-72
2023/05/29 12:41:37;;;;;;;5.75;3.47;;;22.10;1.00;;;;;;5092952;28;20627;-73
2023/05/29 12:44:05;;;;;;;8.77;3.15;;;22.50;1.00;;;;;;5092653;28;20218;-71
2023/05/29 12:46:43;;;;;;;7.40;3.08;;;22.20;1.00;;;;;;5092414;28;20156;-72
2023/05/29 12:49:13;;;;;;;8.07;3.40;;;21.50;1.00;;;;;;5093035;28;20266;-72